Pocono Lake, Pennsylvania
Current Conditions -  °F | °C
As of 8:53 AM on Wednesday 28 Jan 2015 (Local Time) from KMPO Reporting Station
Clear Clear  
Wind Chill: -10°   Ceiling: Unl
Heat Index: 10°   Visibility: 8mi
Dew Point:   Wind: 24mph
Humidity: 70%   Direction: 320°NW
Pressure: 29.92"   Gusts: 35mph
Location:  41.09°N, 75.58°W
Report Text: KMPO 281353Z AUTO 32021G30KT 8SM CLR M12/M17 A2992 RMK AO2 PK WND 31039/1257 SLP173 T11221167
Loading
Personal Weather Stations






























Interactive Weather Map New forecast layout! Learn more

10-Day Weather Forecast

Advertisements
Track Severe Weather on mobile